Flight Track Log - Related Links

Times and Time Zones

All times are in EDT time to prevent confusion due to time zone crossing. See the EJA846 flight status page for this flight to view local times or setup timezone preferences in your user account.

Time Position Orientation Groundspeed Altitude Reporting Facility
EDT Latitude Longitude Course Direction KTS MPH feet Rate Location/Type
Fri 10:56:46 AM 41.7289 -71.4219 72° East 160 184 800  Level Boston Center
Fri 10:57:46 AM 41.7450 -71.3550 72° East 197 227 4,200 2,083 Climbing Boston Center
Fri 10:58:47 AM 41.7567 -71.2686 80° East 234 269 5,000 393 Climbing Boston Center
Fri 10:59:48 AM 41.7681 -71.1819 80° East 236 272 5,000  Level Boston Center
Fri 11:01:00 AM 41.7667 -71.0727 90° East  Level FlightAware Approximate
Fri 11:08:00 AM 41.8582 -70.4625 79° East  Level FlightAware Approximate
Fri 11:09:00 AM 41.8513 -70.3846 143° Southeast  Level FlightAware Approximate
Fri 11:10:00 AM 41.7892 -70.3529 160° South  Level FlightAware Approximate
Fri 11:11:00 AM 41.7295 -70.3138 151° Southeast  Level FlightAware Approximate
Fri 11:12:00 AM 41.6715 -70.2703 151° Southeast  Level FlightAware Approximate
Fri 11:13:00 AM 41.6667 -70.2667 151° Southeast  Level FlightAware Approximate
Fri 11:14:00 AM 41.6693 -70.2804 151° Southeast  Level Estimated
Fri 11:15:00 AM 41.6693 -70.2804 151° Southeast  Level Estimated
Fri 11:16:00 AM 41.6693 -70.2804 151° Southeast  Level Estimated
Fri 11:17:00 AM 41.6693 -70.2804 151° Southeast  Level Estimated
Fri 11:18:00 AM 41.6693 -70.2804 151° Southeast  Level Estimated
Fri 11:19:00 AM 41.6693 -70.2804 151° Southeast  Level Estimated
Fri 11:20:00 AM 41.6693 -70.2804 151° Southeast  Level Estimated
Fri 11:21:00 AM 41.6693 -70.2804 151° Southeast  Level Estimated
Fri 11:22:00 AM 41.6693 -70.2804 151° Southeast  Level Estimated
Fri 11:23:00 AM 41.6693 -70.2804 151° Southeast  Level Estimated
Fri 11:24:00 AM 41.6693 -70.2804 151° Southeast  Level Estimated
Fri 11:25:00 AM 41.6693 -70.2804 151° Southeast  Level Estimated
Fri 11:26:00 AM 41.6693 -70.2804 151° Southeast  Level Estimated
Fri 11:27:00 AM 41.6693 -70.2804 151° Southeast  Level Estimated

Login

Don't have an account? Register now (free) for customized features, flight alerts, and more!